createdAt,value
2022-12-18T00:01:29.371Z,84.70
2022-12-18T00:03:57.916Z,92.22
2022-12-18T00:06:29.394Z,88.72
2022-12-18T00:08:58.914Z,88.70
2022-12-18T00:11:29.472Z,87.18
2022-12-18T00:13:59.441Z,100.93
2022-12-18T00:16:29.084Z,87.00
2022-12-18T00:18:58.882Z,90.45
2022-12-18T00:21:29.248Z,86.25
2022-12-18T00:23:56.987Z,80.85
2022-12-18T00:26:26.632Z,96.82
2022-12-18T00:28:56.562Z,86.90
2022-12-18T00:31:26.313Z,81.22
2022-12-18T00:33:55.773Z,95.40
2022-12-18T00:36:33.137Z,82.30
2022-12-18T00:39:05.334Z,89.28
2022-12-18T00:41:51.414Z,90.63
2022-12-18T00:44:20.656Z,84.88
2022-12-18T00:46:49.518Z,91.00
2022-12-18T00:49:18.748Z,74.93
2022-12-18T00:51:49.403Z,83.97
2022-12-18T00:54:17.992Z,79.00
2022-12-18T00:56:49.285Z,88.50
2022-12-18T00:59:18.681Z,83.63
2022-12-18T01:01:47.142Z,81.43
2022-12-18T01:04:15.911Z,86.28
2022-12-18T01:06:43.573Z,76.28
2022-12-18T01:09:14.109Z,88.28
2022-12-18T01:11:42.119Z,79.95
2022-12-18T01:14:09.936Z,82.03
2022-12-18T01:16:37.679Z,82.57
2022-12-18T01:19:05.357Z,84.28
2022-12-18T01:21:33.065Z,76.55
2022-12-18T01:24:00.785Z,79.25
2022-12-18T01:26:30.857Z,85.60
2022-12-18T01:28:59.171Z,86.50
2022-12-18T01:31:28.611Z,80.40
2022-12-18T01:33:57.763Z,79.85
2022-12-18T01:36:27.443Z,80.55
2022-12-18T01:38:56.723Z,80.88
2022-12-18T01:41:26.723Z,74.93
2022-12-18T01:43:58.252Z,86.20
2022-12-18T01:46:29.002Z,80.20
2022-12-18T01:49:00.117Z,78.25
2022-12-18T01:51:29.404Z,82.68
2022-12-18T01:53:58.971Z,83.93
2022-12-18T01:56:26.727Z,80.93
2022-12-18T01:59:02.798Z,86.88
2022-12-18T02:01:32.435Z,80.68
2022-12-18T02:04:21.940Z,79.28
2022-12-18T02:06:57.309Z,74.50
2022-12-18T02:09:32.511Z,83.35
2022-12-18T02:12:08.656Z,81.25
2022-12-18T02:14:42.345Z,83.03
2022-12-18T02:17:18.717Z,84.70
2022-12-18T02:19:57.595Z,73.45
2022-12-18T02:22:37.392Z,78.50
2022-12-18T02:25:18.376Z,81.82
2022-12-18T02:27:50.935Z,80.90
2022-12-18T02:30:20.041Z,73.57
2022-12-18T02:32:51.761Z,75.32
2022-12-18T02:35:24.111Z,71.18
2022-12-18T02:37:52.954Z,83.03
2022-12-18T02:40:23.483Z,75.45
2022-12-18T02:42:52.603Z,69.75
2022-12-18T02:45:20.396Z,75.03
2022-12-18T02:47:50.193Z,74.93
2022-12-18T02:50:24.895Z,65.05
2022-12-18T02:53:05.573Z,81.05
2022-12-18T02:55:46.583Z,83.38
2022-12-18T02:58:19.687Z,68.28
2022-12-18T03:00:59.931Z,74.13
2022-12-18T03:03:32.275Z,73.50
2022-12-18T03:06:03.804Z,73.97
2022-12-18T03:08:35.227Z,63.17
2022-12-18T03:11:05.865Z,72.35
2022-12-18T03:13:39.601Z,74.80
2022-12-18T03:16:11.385Z,76.97
2022-12-18T03:18:44.538Z,67.93
2022-12-18T03:21:15.693Z,72.68
2022-12-18T03:23:49.637Z,79.25
2022-12-18T03:26:20.560Z,73.68
2022-12-18T03:28:53.140Z,67.55
2022-12-18T03:31:24.418Z,70.97
2022-12-18T03:33:54.558Z,66.53
2022-12-18T03:36:22.544Z,62.83
2022-12-18T03:38:50.193Z,67.43
2022-12-18T03:41:24.822Z,58.97
2022-12-18T03:43:59.267Z,65.68
2022-12-18T03:46:31.755Z,59.92
2022-12-18T03:49:10.521Z,66.63
2022-12-18T03:51:44.721Z,68.57
2022-12-18T03:54:14.315Z,59.88
2022-12-18T03:56:50.187Z,58.55
2022-12-18T03:59:21.622Z,65.30
2022-12-18T04:01:52.688Z,58.90
2022-12-18T04:04:22.089Z,60.13
2022-12-18T04:06:51.656Z,68.45
2022-12-18T04:09:20.404Z,61.55
2022-12-18T04:11:48.935Z,68.80
2022-12-18T04:14:18.257Z,54.95
2022-12-18T04:16:47.664Z,62.50
2022-12-18T04:19:15.425Z,65.50
2022-12-18T04:21:43.436Z,57.35
2022-12-18T04:24:11.093Z,64.60
2022-12-18T04:26:39.255Z,65.63
2022-12-18T04:29:06.890Z,69.13
2022-12-18T04:31:34.538Z,69.43
2022-12-18T04:34:04.372Z,66.93
2022-12-18T04:36:31.998Z,64.43
2022-12-18T04:39:00.493Z,68.10
2022-12-18T04:41:28.144Z,71.22
2022-12-18T04:43:55.832Z,75.57
2022-12-18T04:46:23.536Z,82.25
2022-12-18T04:48:51.267Z,66.93
2022-12-18T04:51:26.145Z,61.17
2022-12-18T04:53:54.353Z,62.55
2022-12-18T04:56:22.376Z,61.63
2022-12-18T04:58:50.013Z,64.30
2022-12-18T05:01:19.445Z,67.80
2022-12-18T05:03:47.434Z,60.03
2022-12-18T05:06:15.761Z,68.30
2022-12-18T05:08:44.868Z,61.58
2022-12-18T05:11:17.026Z,66.45
2022-12-18T05:13:46.202Z,60.88
2022-12-18T05:16:15.515Z,62.60
2022-12-18T05:18:43.556Z,60.50
2022-12-18T05:21:11.232Z,57.38
2022-12-18T05:23:39.318Z,63.28
2022-12-18T05:26:09.343Z,62.17
2022-12-18T05:28:38.408Z,62.53
2022-12-18T05:31:07.145Z,58.15
2022-12-18T05:33:36.782Z,56.83
2022-12-18T05:36:06.829Z,67.65
2022-12-18T05:38:36.110Z,61.78
2022-12-18T05:41:04.443Z,62.55
2022-12-18T05:43:33.610Z,60.15
2022-12-18T05:46:06.096Z,66.75
2022-12-18T05:48:33.882Z,68.00
2022-12-18T05:51:07.945Z,60.22
2022-12-18T05:53:36.038Z,57.08
2022-12-18T05:56:06.539Z,62.08
2022-12-18T05:58:35.789Z,62.50
2022-12-18T06:01:10.017Z,65.00
2022-12-18T06:03:38.022Z,60.58
2022-12-18T06:06:06.441Z,62.55
2022-12-18T06:08:34.065Z,57.85
2022-12-18T06:11:01.699Z,63.80
2022-12-18T06:13:29.314Z,50.70
2022-12-18T06:15:58.409Z,58.47
2022-12-18T06:18:26.073Z,54.08
2022-12-18T06:20:57.775Z,67.47
2022-12-18T06:23:25.473Z,60.55
2022-12-18T06:25:53.382Z,69.00
2022-12-18T06:28:21.117Z,64.20
2022-12-18T06:30:50.209Z,55.92
2022-12-18T06:33:19.510Z,61.35
2022-12-18T06:35:47.103Z,58.85
2022-12-18T06:38:14.984Z,60.05
2022-12-18T06:40:42.582Z,60.75
2022-12-18T06:43:10.437Z,55.08
2022-12-18T06:45:38.229Z,58.65
2022-12-18T06:48:05.958Z,67.30
2022-12-18T06:50:34.998Z,63.65
2022-12-18T06:53:02.606Z,54.83
2022-12-18T06:55:30.486Z,62.17
2022-12-18T06:57:58.524Z,69.53
2022-12-18T07:00:26.182Z,62.50
2022-12-18T07:02:54.048Z,60.63
2022-12-18T07:05:21.839Z,55.92
2022-12-18T07:07:50.875Z,70.10
2022-12-18T07:10:18.589Z,64.85
2022-12-18T07:12:46.300Z,60.38
2022-12-18T07:15:14.218Z,58.30
2022-12-18T07:17:42.056Z,59.55
2022-12-18T07:20:11.296Z,61.90
2022-12-18T07:22:38.976Z,55.58
2022-12-18T07:25:09.972Z,56.72
2022-12-18T07:27:37.681Z,66.20
2022-12-18T07:30:06.565Z,56.97
2022-12-18T07:32:34.277Z,57.80
2022-12-18T07:35:01.985Z,56.58
2022-12-18T07:37:29.746Z,64.90
2022-12-18T07:39:57.873Z,55.55
2022-12-18T07:42:32.900Z,59.22
2022-12-18T07:45:01.085Z,60.20
2022-12-18T07:47:28.732Z,70.35
2022-12-18T07:49:57.167Z,65.70
2022-12-18T07:52:26.341Z,64.63
2022-12-18T07:54:54.118Z,68.70
2022-12-18T07:57:48.869Z,63.65
2022-12-18T08:00:13.219Z,60.25
2022-12-18T08:02:41.101Z,65.07
2022-12-18T08:05:10.674Z,54.97
2022-12-18T08:07:38.386Z,62.53
2022-12-18T08:10:06.896Z,61.83
2022-12-18T08:12:34.585Z,58.50
2022-12-18T08:15:02.743Z,59.58
2022-12-18T08:17:31.939Z,64.55
2022-12-18T08:19:59.785Z,59.38
2022-12-18T08:22:27.715Z,60.50
2022-12-18T08:24:55.778Z,56.58
2022-12-18T08:27:30.644Z,55.00
2022-12-18T08:29:58.373Z,60.13
2022-12-18T08:32:26.714Z,63.65
2022-12-18T08:34:55.813Z,60.85
2022-12-18T08:37:23.442Z,66.53
2022-12-18T08:39:51.133Z,60.65
2022-12-18T08:42:36.344Z,63.58
2022-12-18T08:45:04.641Z,58.53
2022-12-18T08:47:32.524Z,58.90
2022-12-18T08:50:01.724Z,57.63
2022-12-18T08:52:29.410Z,58.08
2022-12-18T08:54:57.077Z,62.08
2022-12-18T08:57:24.789Z,61.80
2022-12-18T08:59:52.513Z,66.57
2022-12-18T09:02:20.612Z,62.38
2022-12-18T09:04:55.419Z,61.80
2022-12-18T09:07:26.356Z,64.35
2022-12-18T09:09:53.983Z,65.57
2022-12-18T09:12:21.716Z,59.65
2022-12-18T09:14:49.365Z,64.43
2022-12-18T09:17:17.272Z,63.20
2022-12-18T09:19:45.325Z,60.75
2022-12-18T09:22:12.953Z,65.38
2022-12-18T09:24:42.017Z,63.10
2022-12-18T09:27:09.908Z,61.00
2022-12-18T09:29:37.833Z,64.75
2022-12-18T09:32:06.136Z,63.55
2022-12-18T09:34:33.861Z,69.35
2022-12-18T09:37:01.551Z,67.03
2022-12-18T09:39:29.327Z,72.30
2022-12-18T09:42:00.429Z,68.10
2022-12-18T09:44:31.212Z,65.70
2022-12-18T09:47:10.536Z,75.25
2022-12-18T09:49:43.634Z,67.72
2022-12-18T09:52:16.535Z,64.32
2022-12-18T09:54:47.793Z,61.25
2022-12-18T09:57:20.992Z,66.32
2022-12-18T09:59:53.955Z,60.88
2022-12-18T10:02:24.842Z,65.10
2022-12-18T10:05:03.931Z,65.68
2022-12-18T10:07:40.525Z,60.55
2022-12-18T10:10:16.220Z,53.30
2022-12-18T10:12:59.522Z,60.33
2022-12-18T10:15:37.222Z,57.45
2022-12-18T10:18:21.736Z,59.10
2022-12-18T10:20:53.168Z,56.70
2022-12-18T10:23:27.992Z,59.60
2022-12-18T10:26:03.191Z,57.63
2022-12-18T10:28:34.691Z,50.22
2022-12-18T10:31:02.433Z,52.47
2022-12-18T10:33:32.726Z,54.13
2022-12-18T10:36:01.159Z,51.60
2022-12-18T10:38:31.040Z,53.17
2022-12-18T10:41:00.948Z,53.90
2022-12-18T10:43:31.540Z,49.42
2022-12-18T10:46:24.442Z,46.75
2022-12-18T10:48:57.118Z,47.03
2022-12-18T10:51:30.313Z,46.70
2022-12-18T10:54:02.970Z,48.58
2022-12-18T10:56:35.375Z,47.13
2022-12-18T10:59:06.037Z,44.38
2022-12-18T11:01:49.588Z,52.63
2022-12-18T11:04:20.948Z,49.13
2022-12-18T11:06:57.491Z,53.38
2022-12-18T11:09:26.961Z,46.70
2022-12-18T11:11:56.502Z,43.67
2022-12-18T11:14:26.610Z,43.47
2022-12-18T11:19:45.892Z,40.50
2022-12-18T11:22:22.858Z,44.58
2022-12-18T11:25:29.995Z,47.20
2022-12-18T11:27:51.022Z,44.03
2022-12-18T11:30:25.683Z,46.58
2022-12-18T11:32:58.480Z,50.80
2022-12-18T11:35:37.515Z,47.58
2022-12-18T11:38:25.306Z,44.65
2022-12-18T11:40:58.948Z,52.97
2022-12-18T11:43:31.831Z,59.97
2022-12-18T11:46:05.788Z,60.13
2022-12-18T11:48:43.493Z,52.90
2022-12-18T11:51:16.794Z,52.55
2022-12-18T11:53:44.589Z,58.03
2022-12-18T11:56:30.076Z,49.67
2022-12-18T11:59:10.649Z,53.53
2022-12-18T12:01:51.137Z,55.85
2022-12-18T12:04:43.082Z,57.55
2022-12-18T12:07:28.514Z,55.88
2022-12-18T12:10:06.096Z,56.70
2022-12-18T12:12:49.279Z,54.17
2022-12-18T12:15:28.234Z,57.20
2022-12-18T12:18:06.845Z,55.50
2022-12-18T12:20:49.494Z,53.90
2022-12-18T12:23:27.819Z,54.97
2022-12-18T12:26:04.124Z,54.38
2022-12-18T12:28:46.948Z,58.38
2022-12-18T12:31:24.957Z,57.47
2022-12-18T12:34:02.999Z,56.33
2022-12-18T12:36:42.635Z,48.90
2022-12-18T12:39:15.861Z,56.65
2022-12-18T12:42:04.851Z,60.28
2022-12-18T12:44:37.708Z,58.78
2022-12-18T12:47:21.965Z,52.70
2022-12-18T12:49:51.622Z,55.33
2022-12-18T12:52:30.371Z,50.72
2022-12-18T12:54:59.547Z,54.45
2022-12-18T12:57:35.843Z,52.90
2022-12-18T13:00:07.691Z,56.15
2022-12-18T13:02:41.404Z,52.63
2022-12-18T13:05:21.503Z,54.90
2022-12-18T13:07:55.871Z,52.72
2022-12-18T13:10:29.126Z,53.78
2022-12-18T13:12:57.853Z,56.95
2022-12-18T13:15:30.471Z,49.58
2022-12-18T13:18:13.742Z,47.00
2022-12-18T13:20:49.188Z,58.08
2022-12-18T13:23:30.431Z,54.85
2022-12-18T13:25:59.381Z,53.45
2022-12-18T13:28:52.899Z,51.17
2022-12-18T13:32:05.182Z,58.55
2022-12-18T13:34:34.252Z,63.67
2022-12-18T13:37:39.227Z,54.40
2022-12-18T13:40:42.320Z,54.75
2022-12-18T13:43:27.414Z,56.10
2022-12-18T13:46:04.461Z,58.25
2022-12-18T13:48:35.600Z,54.17
2022-12-18T13:51:07.111Z,53.38
2022-12-18T13:53:44.348Z,55.50
2022-12-18T13:56:18.018Z,58.70
2022-12-18T13:58:45.722Z,55.00
2022-12-18T14:01:24.299Z,51.28
2022-12-18T14:03:52.241Z,62.40
2022-12-18T14:06:19.963Z,55.85
2022-12-18T14:08:48.884Z,54.50
2022-12-18T14:11:24.894Z,55.50
2022-12-18T14:13:54.588Z,59.65
2022-12-18T14:16:22.296Z,54.13
2022-12-18T14:18:55.537Z,63.30
2022-12-18T14:21:33.004Z,62.83
2022-12-18T14:24:14.593Z,67.35
2022-12-18T14:26:44.710Z,65.10
2022-12-18T14:29:25.136Z,61.75
2022-12-18T14:32:16.943Z,61.08
2022-12-18T14:34:46.226Z,58.55
2022-12-18T14:37:15.474Z,66.57
2022-12-18T14:39:54.568Z,59.15
2022-12-18T14:42:23.788Z,65.60
2022-12-18T14:45:12.924Z,63.45
2022-12-18T14:47:39.437Z,62.38
2022-12-18T14:50:15.684Z,69.15
2022-12-18T14:52:43.537Z,64.50
2022-12-18T14:55:17.814Z,67.07
2022-12-18T14:57:48.079Z,72.93
2022-12-18T15:00:19.692Z,65.28
2022-12-18T15:02:49.451Z,73.65
2022-12-18T15:05:22.062Z,66.63
2022-12-18T15:07:52.411Z,72.68
2022-12-18T15:10:22.272Z,64.20
2022-12-18T15:12:53.035Z,71.18
2022-12-18T15:15:50.002Z,76.30
2022-12-18T15:18:21.709Z,68.45
2022-12-18T15:20:51.755Z,65.63
2022-12-18T15:23:22.545Z,78.82
2022-12-18T15:25:56.439Z,66.28
2022-12-18T15:28:28.700Z,73.47
2022-12-18T15:31:07.642Z,70.70
2022-12-18T15:33:38.136Z,76.78
2022-12-18T15:36:10.249Z,76.30
2022-12-18T15:38:38.407Z,73.10
2022-12-18T15:41:14.597Z,72.72
2022-12-18T15:43:43.489Z,69.95
2022-12-18T15:46:15.032Z,75.00
2022-12-18T15:48:44.677Z,72.00
2022-12-18T15:51:17.310Z,75.28
2022-12-18T15:53:45.943Z,76.30
2022-12-18T15:56:32.878Z,72.45
2022-12-18T15:59:03.388Z,107.60
2022-12-18T16:01:35.145Z,75.60
2022-12-18T16:04:06.123Z,72.95
2022-12-18T16:06:51.040Z,79.57
2022-12-18T16:09:26.040Z,83.30
2022-12-18T16:11:54.156Z,71.85
2022-12-18T16:14:24.757Z,69.70
2022-12-18T16:16:54.977Z,69.80
2022-12-18T16:19:23.353Z,70.55
2022-12-18T16:21:54.923Z,66.65
2022-12-18T16:24:24.978Z,69.93
2022-12-18T16:26:53.456Z,70.28
2022-12-18T16:29:28.331Z,61.63
2022-12-18T16:31:56.417Z,64.78
2022-12-18T16:34:28.799Z,58.92
2022-12-18T16:37:03.134Z,68.90
2022-12-18T16:39:34.852Z,70.43
2022-12-18T16:42:05.683Z,70.63
2022-12-18T16:44:35.691Z,68.00
2022-12-18T16:47:03.957Z,75.60
2022-12-18T16:49:31.932Z,76.05
2022-12-18T16:51:59.684Z,71.22
2022-12-18T16:54:30.417Z,68.53
2022-12-18T16:56:58.751Z,76.25
2022-12-18T16:59:27.360Z,70.03
2022-12-18T17:01:57.471Z,75.68
2022-12-18T17:04:25.296Z,75.82
2022-12-18T17:06:53.813Z,72.00
2022-12-18T17:09:24.735Z,70.03
2022-12-18T17:11:52.992Z,71.57
2022-12-18T17:14:24.476Z,71.45
2022-12-18T17:17:19.324Z,73.18
2022-12-18T17:19:41.123Z,72.30
2022-12-18T17:22:09.385Z,75.15
2022-12-18T17:24:37.374Z,76.20
2022-12-18T17:27:05.828Z,77.70
2022-12-18T17:29:33.460Z,74.13
2022-12-18T17:32:01.148Z,69.45
2022-12-18T17:34:29.047Z,79.95
2022-12-18T17:36:59.210Z,65.25
2022-12-18T17:39:28.678Z,74.75
2022-12-18T17:41:56.827Z,81.20
2022-12-18T17:44:24.458Z,77.00
2022-12-18T17:46:52.172Z,71.03
2022-12-18T17:49:19.963Z,66.20
2022-12-18T17:51:47.591Z,65.28
2022-12-18T17:54:16.769Z,67.55
2022-12-18T17:56:44.409Z,67.95
2022-12-18T17:59:12.756Z,67.15
2022-12-18T18:01:44.467Z,67.13
2022-12-18T18:04:13.341Z,60.80
2022-12-18T18:06:41.127Z,69.57
2022-12-18T18:09:16.685Z,65.40
2022-12-18T18:12:04.464Z,60.55
2022-12-18T18:14:32.571Z,58.83
2022-12-18T18:17:03.910Z,59.95
2022-12-18T18:19:33.993Z,61.25
2022-12-18T18:22:02.998Z,65.93
2022-12-18T18:24:31.873Z,54.40
2022-12-18T18:27:00.983Z,55.20
2022-12-18T18:29:30.255Z,60.55
2022-12-18T18:31:58.409Z,56.97
2022-12-18T18:34:28.155Z,60.78
2022-12-18T18:36:55.948Z,62.65
2022-12-18T18:39:23.773Z,56.75
2022-12-18T18:41:51.444Z,61.97
2022-12-18T18:44:22.846Z,65.10
2022-12-18T18:46:55.119Z,63.67
2022-12-18T18:49:24.454Z,59.20
2022-12-18T18:51:52.303Z,62.97
2022-12-18T18:54:20.816Z,67.35
2022-12-18T18:59:39.509Z,62.58
2022-12-18T19:02:08.053Z,61.60
2022-12-18T19:04:38.461Z,61.50
2022-12-18T19:07:13.632Z,60.50
2022-12-18T19:09:45.361Z,59.03
2022-12-18T19:12:33.538Z,69.28
2022-12-18T19:15:04.123Z,73.20
2022-12-18T19:17:31.982Z,73.70
2022-12-18T19:19:59.639Z,72.47
2022-12-18T19:22:27.328Z,70.97
2022-12-18T19:24:54.968Z,71.65
2022-12-18T19:27:22.741Z,66.82
2022-12-18T19:29:50.631Z,64.22
2022-12-18T19:32:19.768Z,61.20
2022-12-18T19:34:48.067Z,63.53
2022-12-18T19:37:16.340Z,72.00
2022-12-18T19:39:44.033Z,62.15
2022-12-18T19:42:11.776Z,64.32
2022-12-18T19:44:39.443Z,67.93
2022-12-18T19:47:07.107Z,65.15
2022-12-18T19:49:37.053Z,63.38
2022-12-18T19:52:04.742Z,69.50
2022-12-18T19:54:32.621Z,61.38
2022-12-18T19:57:00.354Z,56.03
2022-12-18T19:59:28.049Z,65.15
2022-12-18T20:01:55.887Z,67.22
2022-12-18T20:04:28.791Z,66.47
2022-12-18T20:06:57.962Z,73.50
2022-12-18T20:09:25.766Z,68.35
2022-12-18T20:11:54.286Z,61.78
2022-12-18T20:14:23.369Z,64.57
2022-12-18T20:16:51.996Z,69.68
2022-12-18T20:19:20.352Z,64.93
2022-12-18T20:21:48.441Z,68.65
2022-12-18T20:24:17.681Z,61.45
2022-12-18T20:26:45.459Z,72.72
2022-12-18T20:29:13.299Z,65.50
2022-12-18T20:31:42.282Z,67.00
2022-12-18T20:34:10.054Z,68.78
2022-12-18T20:36:38.637Z,70.82
2022-12-18T20:39:09.881Z,70.95
2022-12-18T20:41:40.338Z,72.47
2022-12-18T20:44:21.425Z,65.20
2022-12-18T20:46:51.638Z,76.95
2022-12-18T20:49:19.603Z,70.97
2022-12-18T20:51:47.687Z,65.38
2022-12-18T20:54:15.403Z,61.10
2022-12-18T20:56:44.481Z,67.85
2022-12-18T20:59:12.338Z,64.72
2022-12-18T21:01:40.846Z,68.88
2022-12-18T21:04:18.031Z,73.68
2022-12-18T21:06:51.402Z,63.13
2022-12-18T21:09:21.319Z,65.10
2022-12-18T21:12:08.962Z,65.93
2022-12-18T21:14:40.071Z,61.13
2022-12-18T21:17:07.894Z,61.60
2022-12-18T21:19:35.772Z,62.38
2022-12-18T21:22:03.949Z,67.03
2022-12-18T21:24:32.782Z,71.05
2022-12-18T21:27:03.632Z,60.67
2022-12-18T21:29:31.432Z,70.63
2022-12-18T21:31:59.162Z,63.25
2022-12-18T21:34:29.409Z,69.88
2022-12-18T21:36:58.772Z,66.90
2022-12-18T21:39:27.337Z,70.18
2022-12-18T21:42:13.270Z,69.63
2022-12-18T21:44:42.603Z,73.75
2022-12-18T21:47:23.065Z,70.38
2022-12-18T21:49:51.951Z,77.50
2022-12-18T21:52:20.471Z,72.40
2022-12-18T21:54:53.435Z,69.97
2022-12-18T21:57:21.154Z,70.78
2022-12-18T21:59:50.514Z,68.75
2022-12-18T22:02:21.037Z,74.25
2022-12-18T22:04:49.233Z,73.75
2022-12-18T22:07:17.872Z,75.32
2022-12-18T22:09:45.485Z,72.25
2022-12-18T22:12:34.837Z,68.00
2022-12-18T22:15:05.007Z,65.10
2022-12-18T22:17:32.807Z,64.55
2022-12-18T22:20:00.464Z,68.57
2022-12-18T22:22:28.330Z,56.35
2022-12-18T22:24:56.026Z,67.93
2022-12-18T22:27:23.775Z,69.38
2022-12-18T22:30:05.733Z,69.00
2022-12-18T22:32:36.353Z,67.07
2022-12-18T22:35:11.597Z,68.68
2022-12-18T22:37:41.916Z,66.57
2022-12-18T22:40:23.679Z,67.90
2022-12-18T22:42:51.737Z,62.85
2022-12-18T22:45:20.790Z,66.45
2022-12-18T22:47:49.813Z,62.50
2022-12-18T22:50:17.598Z,65.25
2022-12-18T22:52:45.223Z,68.75
2022-12-18T22:55:12.864Z,63.97
2022-12-18T22:57:40.652Z,65.03
2022-12-18T23:00:13.495Z,65.15
2022-12-18T23:02:41.362Z,68.90
2022-12-18T23:05:10.788Z,67.45
2022-12-18T23:07:38.483Z,65.57
2022-12-18T23:10:07.380Z,63.72
2022-12-18T23:12:37.482Z,66.35
2022-12-18T23:15:06.810Z,59.75
2022-12-18T23:17:34.402Z,63.55
2022-12-18T23:20:02.792Z,68.38
2022-12-18T23:22:32.195Z,60.83
2022-12-18T23:25:00.182Z,63.50
2022-12-18T23:27:27.789Z,58.92
2022-12-18T23:29:55.733Z,66.78
2022-12-18T23:32:26.413Z,68.32
2022-12-18T23:34:54.572Z,67.95
2022-12-18T23:37:42.329Z,63.63
2022-12-18T23:40:12.292Z,69.68
2022-12-18T23:42:40.058Z,67.15
2022-12-18T23:45:17.734Z,60.83
2022-12-18T23:47:47.015Z,66.90
2022-12-18T23:50:18.630Z,58.45
2022-12-18T23:52:46.341Z,66.82
2022-12-18T23:55:15.382Z,65.68
2022-12-18T23:57:43.061Z,60.95
